Portada
METAR-TAF:

METAR-TAF

Aeropuertos :

Valencia, España

Aeropuerto de Valencia

latitud: 39-30N, longitud: 000-28W, altitud: 69 m

Observación

El informe se hizo hace 18 minutos, a las 21:00 UTC
Viento calma
Temperatura 21°C
Humedad 78%
Presión 1019 hPa
Visibilidad 10 km o más
sin nubes por debajo de 1500 m y sin presencia de cumulonimbus.

METAR: LEVC 242100Z 00000KT CAVOK 21/17 Q1019 NOSIG

Hora: 23:18 (21:18 UTC)

Pronóstico

El informe se hizo hace 4 horas y 18 minutos, a las 17:00 UTC
Pronóstico válido del 24 a las 18 UTC al 25 a las 18 UTC
Viento 10 kt del este
Visibilidad 10 km o más
Escasas nubes a una altura de 2500 ft
Evolucionando progresivamente
del 24 a las 20 UTC al 24 a las 22 UTC
Viento 3 kt con dirección variable
Evolucionando progresivamente
del 25 a las 10 UTC al 25 a las 12 UTC
Viento 10 kt del este

TAF: LEVC 241700Z 2418/2518 10010KT 9999 FEW025 TX30/2512Z TN15/2506Z BECMG 2420/2422 VRB03KT BECMG 2510/2512 10010KT

Observaciones y pronósticos meteorológicos de más de 4000 aeropuertos (mensajes METAR y TAF).

Los puntos amarillos y rojos representan las estaciones disponibles.

Ponga el ratón en el punto deseado para ver el nombre de la estación.

Haga clic para ver las observaciones y los pronósticos meteorológicos.

Para cambiar el mapa : haga clic en los botones verdes con una cruz de color negro para hacer un zoom, en el botón verde con un guión para alejar o en las flechas verdes para mapas adyacentes.


METAR-TAF: